sensor_id;sensor_type;location;lat;lon;timestamp;temperature;humidity
67275;DHT22;55463;52.324;5.122;2023-07-20T00:02:12;16.31;92.61
67275;DHT22;55463;52.324;5.122;2023-07-20T00:04:38;16.26;92.70
67275;DHT22;55463;52.324;5.122;2023-07-20T00:07:03;16.26;92.43
67275;DHT22;55463;52.324;5.122;2023-07-20T00:09:29;16.25;92.54
67275;DHT22;55463;52.324;5.122;2023-07-20T00:11:55;16.20;92.65
67275;DHT22;55463;52.324;5.122;2023-07-20T00:14:20;16.15;92.31
67275;DHT22;55463;52.324;5.122;2023-07-20T00:16:46;16.15;92.91
67275;DHT22;55463;52.324;5.122;2023-07-20T00:19:14;16.11;92.81
67275;DHT22;55463;52.324;5.122;2023-07-20T00:21:39;16.08;92.68
67275;DHT22;55463;52.324;5.122;2023-07-20T00:24:06;16.08;92.56
67275;DHT22;55463;52.324;5.122;2023-07-20T00:26:31;16.04;92.57
67275;DHT22;55463;52.324;5.122;2023-07-20T00:28:57;15.98;92.60
67275;DHT22;55463;52.324;5.122;2023-07-20T00:31:22;15.91;93.16
67275;DHT22;55463;52.324;5.122;2023-07-20T00:33:48;15.96;92.99
67275;DHT22;55463;52.324;5.122;2023-07-20T00:36:14;15.93;92.83
67275;DHT22;55463;52.324;5.122;2023-07-20T00:38:39;15.87;92.91
67275;DHT22;55463;52.324;5.122;2023-07-20T00:41:06;15.87;92.41
67275;DHT22;55463;52.324;5.122;2023-07-20T00:43:31;15.83;93.18
67275;DHT22;55463;52.324;5.122;2023-07-20T00:45:57;15.82;93.23
67275;DHT22;55463;52.324;5.122;2023-07-20T00:48:23;15.76;93.37
67275;DHT22;55463;52.324;5.122;2023-07-20T00:50:48;15.74;92.85
67275;DHT22;55463;52.324;5.122;2023-07-20T00:53:14;15.73;92.95
67275;DHT22;55463;52.324;5.122;2023-07-20T00:55:40;15.73;93.55
67275;DHT22;55463;52.324;5.122;2023-07-20T00:58:05;15.71;93.45
67275;DHT22;55463;52.324;5.122;2023-07-20T01:00:31;15.65;93.54
67275;DHT22;55463;52.324;5.122;2023-07-20T01:02:56;15.67;93.49
67275;DHT22;55463;52.324;5.122;2023-07-20T01:05:25;15.63;93.72
67275;DHT22;55463;52.324;5.122;2023-07-20T01:07:59;15.65;93.23
67275;DHT22;55463;52.324;5.122;2023-07-20T01:10:30;15.59;93.70
67275;DHT22;55463;52.324;5.122;2023-07-20T01:12:57;15.55;94.31
67275;DHT22;55463;52.324;5.122;2023-07-20T01:15:23;15.55;93.87
67275;DHT22;55463;52.324;5.122;2023-07-20T01:17:48;15.56;94.28
67275;DHT22;55463;52.324;5.122;2023-07-20T01:20:15;15.55;94.02
67275;DHT22;55463;52.324;5.122;2023-07-20T01:23:11;15.55;93.92
67275;DHT22;55463;52.324;5.122;2023-07-20T01:26:08;15.53;94.49
67275;DHT22;55463;52.324;5.122;2023-07-20T01:31:21;15.50;93.70
67275;DHT22;55463;52.324;5.122;2023-07-20T01:33:50;15.50;94.29
67275;DHT22;55463;52.324;5.122;2023-07-20T01:36:18;15.49;94.99
67275;DHT22;55463;52.324;5.122;2023-07-20T01:38:45;15.48;94.85
67275;DHT22;55463;52.324;5.122;2023-07-20T01:41:11;15.46;94.78
67275;DHT22;55463;52.324;5.122;2023-07-20T01:43:37;15.45;95.00
67275;DHT22;55463;52.324;5.122;2023-07-20T01:46:02;15.43;94.68
67275;DHT22;55463;52.324;5.122;2023-07-20T01:48:28;15.46;94.49
67275;DHT22;55463;52.324;5.122;2023-07-20T01:50:53;15.45;94.37
67275;DHT22;55463;52.324;5.122;2023-07-20T01:53:20;15.43;94.28
67275;DHT22;55463;52.324;5.122;2023-07-20T01:55:45;15.39;94.34
67275;DHT22;55463;52.324;5.122;2023-07-20T01:58:10;15.38;94.63
67275;DHT22;55463;52.324;5.122;2023-07-20T02:00:39;15.39;94.12
67275;DHT22;55463;52.324;5.122;2023-07-20T02:03:05;15.38;94.41
67275;DHT22;55463;52.324;5.122;2023-07-20T02:05:30;15.38;94.46
67275;DHT22;55463;52.324;5.122;2023-07-20T02:07:56;15.34;94.29
67275;DHT22;55463;52.324;5.122;2023-07-20T02:10:21;15.36;94.29
67275;DHT22;55463;52.324;5.122;2023-07-20T02:12:47;15.31;94.26
67275;DHT22;55463;52.324;5.122;2023-07-20T02:15:13;15.31;94.65
67275;DHT22;55463;52.324;5.122;2023-07-20T02:17:42;15.30;94.65
67275;DHT22;55463;52.324;5.122;2023-07-20T02:20:08;15.30;94.34
67275;DHT22;55463;52.324;5.122;2023-07-20T02:22:37;15.28;94.41
67275;DHT22;55463;52.324;5.122;2023-07-20T02:25:04;15.25;93.95
67275;DHT22;55463;52.324;5.122;2023-07-20T02:27:30;15.22;93.94
67275;DHT22;55463;52.324;5.122;2023-07-20T02:29:55;15.22;94.18
67275;DHT22;55463;52.324;5.122;2023-07-20T02:32:21;15.22;93.93
67275;DHT22;55463;52.324;5.122;2023-07-20T02:34:46;15.27;94.20
67275;DHT22;55463;52.324;5.122;2023-07-20T02:37:12;15.20;94.17
67275;DHT22;55463;52.324;5.122;2023-07-20T02:39:38;15.20;94.32
67275;DHT22;55463;52.324;5.122;2023-07-20T02:42:04;15.21;93.92
67275;DHT22;55463;52.324;5.122;2023-07-20T02:44:30;15.22;93.96
67275;DHT22;55463;52.324;5.122;2023-07-20T02:46:55;15.21;94.37
67275;DHT22;55463;52.324;5.122;2023-07-20T02:49:21;15.20;94.13
67275;DHT22;55463;52.324;5.122;2023-07-20T02:51:46;15.20;93.90
67275;DHT22;55463;52.324;5.122;2023-07-20T02:54:11;15.17;94.23
67275;DHT22;55463;52.324;5.122;2023-07-20T02:56:37;15.15;94.12
67275;DHT22;55463;52.324;5.122;2023-07-20T02:59:03;15.17;93.93
67275;DHT22;55463;52.324;5.122;2023-07-20T03:01:28;15.17;94.03
67275;DHT22;55463;52.324;5.122;2023-07-20T03:03:56;15.11;94.13
67275;DHT22;55463;52.324;5.122;2023-07-20T03:06:22;15.10;93.87
67275;DHT22;55463;52.324;5.122;2023-07-20T03:08:48;15.07;93.74
67275;DHT22;55463;52.324;5.122;2023-07-20T03:11:18;15.00;93.59
67275;DHT22;55463;52.324;5.122;2023-07-20T03:13:44;15.03;93.58
67275;DHT22;55463;52.324;5.122;2023-07-20T03:16:11;15.00;93.51
67275;DHT22;55463;52.324;5.122;2023-07-20T03:18:38;14.97;93.65
67275;DHT22;55463;52.324;5.122;2023-07-20T03:21:07;14.94;93.37
67275;DHT22;55463;52.324;5.122;2023-07-20T03:23:33;14.91;93.78
67275;DHT22;55463;52.324;5.122;2023-07-20T03:25:58;14.97;93.72
67275;DHT22;55463;52.324;5.122;2023-07-20T03:28:24;14.93;93.42
67275;DHT22;55463;52.324;5.122;2023-07-20T03:30:56;14.93;93.59
67275;DHT22;55463;52.324;5.122;2023-07-20T03:33:24;14.88;93.30
67275;DHT22;55463;52.324;5.122;2023-07-20T03:35:50;14.84;93.44
67275;DHT22;55463;52.324;5.122;2023-07-20T03:38:15;14.81;93.41
67275;DHT22;55463;52.324;5.122;2023-07-20T03:40:52;14.83;93.23
67275;DHT22;55463;52.324;5.122;2023-07-20T03:43:18;14.80;92.99
67275;DHT22;55463;52.324;5.122;2023-07-20T03:45:44;14.83;92.86
67275;DHT22;55463;52.324;5.122;2023-07-20T03:48:11;14.83;92.61
67275;DHT22;55463;52.324;5.122;2023-07-20T03:50:37;14.80;93.08
67275;DHT22;55463;52.324;5.122;2023-07-20T03:53:03;14.79;92.79
67275;DHT22;55463;52.324;5.122;2023-07-20T03:55:28;14.77;92.63
67275;DHT22;55463;52.324;5.122;2023-07-20T03:57:53;14.73;92.50
67275;DHT22;55463;52.324;5.122;2023-07-20T04:00:19;14.73;92.28
67275;DHT22;55463;52.324;5.122;2023-07-20T04:02:44;14.75;92.21
67275;DHT22;55463;52.324;5.122;2023-07-20T04:05:10;14.73;92.09
67275;DHT22;55463;52.324;5.122;2023-07-20T04:07:35;14.69;92.34
67275;DHT22;55463;52.324;5.122;2023-07-20T04:10:01;14.69;91.92
67275;DHT22;55463;52.324;5.122;2023-07-20T04:12:26;14.67;92.08
67275;DHT22;55463;52.324;5.122;2023-07-20T04:14:52;14.62;91.83
67275;DHT22;55463;52.324;5.122;2023-07-20T04:17:18;14.66;91.31
67275;DHT22;55463;52.324;5.122;2023-07-20T04:19:43;14.65;91.50
67275;DHT22;55463;52.324;5.122;2023-07-20T04:22:09;14.65;91.26
67275;DHT22;55463;52.324;5.122;2023-07-20T04:24:34;14.63;90.98
67275;DHT22;55463;52.324;5.122;2023-07-20T04:27:00;14.65;90.88
67275;DHT22;55463;52.324;5.122;2023-07-20T04:29:25;14.66;90.60
67275;DHT22;55463;52.324;5.122;2023-07-20T04:31:51;14.65;90.84
67275;DHT22;55463;52.324;5.122;2023-07-20T04:34:16;14.69;91.03
67275;DHT22;55463;52.324;5.122;2023-07-20T04:36:42;14.69;90.84
67275;DHT22;55463;52.324;5.122;2023-07-20T04:39:09;14.67;91.20
67275;DHT22;55463;52.324;5.122;2023-07-20T04:41:34;14.70;91.50
67275;DHT22;55463;52.324;5.122;2023-07-20T04:44:00;14.69;91.55
67275;DHT22;55463;52.324;5.122;2023-07-20T04:46:25;14.73;91.73
67275;DHT22;55463;52.324;5.122;2023-07-20T04:48:51;14.75;91.23
67275;DHT22;55463;52.324;5.122;2023-07-20T04:51:16;14.79;90.93
67275;DHT22;55463;52.324;5.122;2023-07-20T04:53:46;14.81;90.71
67275;DHT22;55463;52.324;5.122;2023-07-20T04:56:12;14.83;90.31
67275;DHT22;55463;52.324;5.122;2023-07-20T04:58:37;14.86;90.53
67275;DHT22;55463;52.324;5.122;2023-07-20T05:01:02;14.87;91.39
67275;DHT22;55463;52.324;5.122;2023-07-20T05:03:28;14.90;90.53
67275;DHT22;55463;52.324;5.122;2023-07-20T05:05:53;14.91;91.12
67275;DHT22;55463;52.324;5.122;2023-07-20T05:08:19;14.93;90.59
67275;DHT22;55463;52.324;5.122;2023-07-20T05:10:46;14.94;91.51
67275;DHT22;55463;52.324;5.122;2023-07-20T05:13:12;14.94;91.53
67275;DHT22;55463;52.324;5.122;2023-07-20T05:15:37;14.93;91.61
67275;DHT22;55463;52.324;5.122;2023-07-20T05:18:03;14.95;90.89
67275;DHT22;55463;52.324;5.122;2023-07-20T05:20:28;15.00;90.76
67275;DHT22;55463;52.324;5.122;2023-07-20T05:22:54;15.03;91.03
67275;DHT22;55463;52.324;5.122;2023-07-20T05:25:19;15.07;91.02
67275;DHT22;55463;52.324;5.122;2023-07-20T05:27:47;15.05;91.02
67275;DHT22;55463;52.324;5.122;2023-07-20T05:30:13;15.14;91.09
67275;DHT22;55463;52.324;5.122;2023-07-20T05:32:38;15.22;90.61
67275;DHT22;55463;52.324;5.122;2023-07-20T05:35:04;15.35;91.07
67275;DHT22;55463;52.324;5.122;2023-07-20T05:37:29;15.48;90.75
67275;DHT22;55463;52.324;5.122;2023-07-20T05:39:56;15.67;90.57
67275;DHT22;55463;52.324;5.122;2023-07-20T05:42:21;15.83;89.87
67275;DHT22;55463;52.324;5.122;2023-07-20T05:44:47;16.00;89.73
67275;DHT22;55463;52.324;5.122;2023-07-20T05:47:18;16.14;87.85
67275;DHT22;55463;52.324;5.122;2023-07-20T05:49:43;16.36;88.52
67275;DHT22;55463;52.324;5.122;2023-07-20T05:52:09;16.51;88.79
67275;DHT22;55463;52.324;5.122;2023-07-20T05:54:34;16.73;88.28
67275;DHT22;55463;52.324;5.122;2023-07-20T05:56:59;16.95;87.55
67275;DHT22;55463;52.324;5.122;2023-07-20T05:59:27;17.22;87.53
67275;DHT22;55463;52.324;5.122;2023-07-20T06:01:54;17.40;86.34
67275;DHT22;55463;52.324;5.122;2023-07-20T06:04:20;17.62;85.58
67275;DHT22;55463;52.324;5.122;2023-07-20T06:06:45;17.73;83.22
67275;DHT22;55463;52.324;5.122;2023-07-20T06:09:11;17.87;82.85
67275;DHT22;55463;52.324;5.122;2023-07-20T06:11:38;18.02;82.45
67275;DHT22;55463;52.324;5.122;2023-07-20T06:14:04;18.29;82.65
67275;DHT22;55463;52.324;5.122;2023-07-20T06:16:29;18.44;80.99
67275;DHT22;55463;52.324;5.122;2023-07-20T06:18:55;18.67;81.68
67275;DHT22;55463;52.324;5.122;2023-07-20T06:21:20;18.89;79.80
67275;DHT22;55463;52.324;5.122;2023-07-20T06:23:46;19.08;79.62
67275;DHT22;55463;52.324;5.122;2023-07-20T06:26:11;19.24;78.27
67275;DHT22;55463;52.324;5.122;2023-07-20T06:28:37;19.31;76.97
67275;DHT22;55463;52.324;5.122;2023-07-20T06:31:03;19.52;77.71
67275;DHT22;55463;52.324;5.122;2023-07-20T06:33:29;19.74;77.97
67275;DHT22;55463;52.324;5.122;2023-07-20T06:35:54;19.90;76.40
67275;DHT22;55463;52.324;5.122;2023-07-20T06:38:20;20.13;75.42
67275;DHT22;55463;52.324;5.122;2023-07-20T06:40:46;20.28;76.23
67275;DHT22;55463;52.324;5.122;2023-07-20T06:43:12;20.38;74.36
67275;DHT22;55463;52.324;5.122;2023-07-20T06:45:37;20.70;75.14
67275;DHT22;55463;52.324;5.122;2023-07-20T06:48:03;20.94;76.32
67275;DHT22;55463;52.324;5.122;2023-07-20T06:50:29;20.86;71.68
67275;DHT22;55463;52.324;5.122;2023-07-20T06:52:54;20.97;72.88
67275;DHT22;55463;52.324;5.122;2023-07-20T06:55:20;21.15;72.76
67275;DHT22;55463;52.324;5.122;2023-07-20T06:57:45;21.15;72.65
67275;DHT22;55463;52.324;5.122;2023-07-20T07:00:11;21.46;72.67
67275;DHT22;55463;52.324;5.122;2023-07-20T07:02:37;21.63;70.88
67275;DHT22;55463;52.324;5.122;2023-07-20T07:05:03;21.96;70.36
67275;DHT22;55463;52.324;5.122;2023-07-20T07:07:29;22.00;69.71
67275;DHT22;55463;52.324;5.122;2023-07-20T07:09:54;22.14;68.80
67275;DHT22;55463;52.324;5.122;2023-07-20T07:12:20;22.51;68.59
67275;DHT22;55463;52.324;5.122;2023-07-20T07:14:45;22.55;68.25
67275;DHT22;55463;52.324;5.122;2023-07-20T07:17:11;22.87;70.51
67275;DHT22;55463;52.324;5.122;2023-07-20T07:19:36;22.90;66.71
67275;DHT22;55463;52.324;5.122;2023-07-20T07:22:03;22.86;67.25
67275;DHT22;55463;52.324;5.122;2023-07-20T07:24:28;23.11;66.86
67275;DHT22;55463;52.324;5.122;2023-07-20T07:27:01;23.27;66.91
67275;DHT22;55463;52.324;5.122;2023-07-20T07:29:27;23.48;64.39
67275;DHT22;55463;52.324;5.122;2023-07-20T07:31:53;23.67;64.92
67275;DHT22;55463;52.324;5.122;2023-07-20T07:34:18;23.56;64.46
67275;DHT22;55463;52.324;5.122;2023-07-20T07:36:44;23.73;64.43
67275;DHT22;55463;52.324;5.122;2023-07-20T07:39:09;23.58;61.73
67275;DHT22;55463;52.324;5.122;2023-07-20T07:41:35;23.66;63.72
67275;DHT22;55463;52.324;5.122;2023-07-20T07:44:00;24.35;65.23
67275;DHT22;55463;52.324;5.122;2023-07-20T07:46:26;24.34;63.09
67275;DHT22;55463;52.324;5.122;2023-07-20T07:48:51;24.62;62.82
67275;DHT22;55463;52.324;5.122;2023-07-20T07:51:17;24.83;62.91
67275;DHT22;55463;52.324;5.122;2023-07-20T07:53:42;24.68;60.60
67275;DHT22;55463;52.324;5.122;2023-07-20T07:56:09;24.66;61.47
67275;DHT22;55463;52.324;5.122;2023-07-20T07:58:34;24.59;60.21
67275;DHT22;55463;52.324;5.122;2023-07-20T08:01:00;25.03;62.29
67275;DHT22;55463;52.324;5.122;2023-07-20T08:03:25;25.31;61.72
67275;DHT22;55463;52.324;5.122;2023-07-20T08:05:54;25.52;60.31
67275;DHT22;55463;52.324;5.122;2023-07-20T08:08:21;25.85;60.44
67275;DHT22;55463;52.324;5.122;2023-07-20T08:10:46;25.73;59.51
67275;DHT22;55463;52.324;5.122;2023-07-20T08:13:12;26.10;57.16
67275;DHT22;55463;52.324;5.122;2023-07-20T08:15:38;26.10;57.42
67275;DHT22;55463;52.324;5.122;2023-07-20T08:18:03;26.38;57.65
67275;DHT22;55463;52.324;5.122;2023-07-20T08:20:29;26.76;56.49
67275;DHT22;55463;52.324;5.122;2023-07-20T08:22:55;27.04;57.26
67275;DHT22;55463;52.324;5.122;2023-07-20T08:25:21;27.13;56.40
67275;DHT22;55463;52.324;5.122;2023-07-20T08:27:46;26.69;56.72
67275;DHT22;55463;52.324;5.122;2023-07-20T08:30:13;26.61;54.82
67275;DHT22;55463;52.324;5.122;2023-07-20T08:32:38;27.23;56.38
67275;DHT22;55463;52.324;5.122;2023-07-20T08:35:05;27.45;54.87
67275;DHT22;55463;52.324;5.122;2023-07-20T08:37:31;27.70;54.58
67275;DHT22;55463;52.324;5.122;2023-07-20T08:39:56;27.27;53.37
67275;DHT22;55463;52.324;5.122;2023-07-20T08:42:22;27.59;54.84
67275;DHT22;55463;52.324;5.122;2023-07-20T08:44:48;27.45;53.56
67275;DHT22;55463;52.324;5.122;2023-07-20T08:47:16;27.72;53.62
67275;DHT22;55463;52.324;5.122;2023-07-20T08:49:42;27.70;53.14
67275;DHT22;55463;52.324;5.122;2023-07-20T08:52:08;27.31;53.97
67275;DHT22;55463;52.324;5.122;2023-07-20T08:54:34;27.08;54.21
67275;DHT22;55463;52.324;5.122;2023-07-20T08:57:05;27.44;54.80
67275;DHT22;55463;52.324;5.122;2023-07-20T08:59:31;27.07;54.16
67275;DHT22;55463;52.324;5.122;2023-07-20T09:01:58;27.44;52.77
67275;DHT22;55463;52.324;5.122;2023-07-20T09:04:24;26.75;52.80
67275;DHT22;55463;52.324;5.122;2023-07-20T09:06:50;27.30;53.65
67275;DHT22;55463;52.324;5.122;2023-07-20T09:09:16;28.02;53.36
67275;DHT22;55463;52.324;5.122;2023-07-20T09:11:42;28.02;51.35
67275;DHT22;55463;52.324;5.122;2023-07-20T09:14:09;28.47;52.50
67275;DHT22;55463;52.324;5.122;2023-07-20T09:16:53;27.93;50.12
67275;DHT22;55463;52.324;5.122;2023-07-20T09:19:20;27.94;50.37
67275;DHT22;55463;52.324;5.122;2023-07-20T09:21:49;28.57;51.66
67275;DHT22;55463;52.324;5.122;2023-07-20T09:24:17;29.35;50.83
67275;DHT22;55463;52.324;5.122;2023-07-20T09:26:44;29.26;46.70
67275;DHT22;55463;52.324;5.122;2023-07-20T09:29:10;29.44;47.33
67275;DHT22;55463;52.324;5.122;2023-07-20T09:31:36;29.55;47.39
67275;DHT22;55463;52.324;5.122;2023-07-20T09:34:02;29.35;47.61
67275;DHT22;55463;52.324;5.122;2023-07-20T09:36:29;29.41;47.14
67275;DHT22;55463;52.324;5.122;2023-07-20T09:38:55;28.80;46.40
67275;DHT22;55463;52.324;5.122;2023-07-20T09:41:21;28.66;47.26
67275;DHT22;55463;52.324;5.122;2023-07-20T09:43:46;28.58;44.65
67275;DHT22;55463;52.324;5.122;2023-07-20T09:46:12;28.16;46.62
67275;DHT22;55463;52.324;5.122;2023-07-20T09:48:38;28.51;46.24
67275;DHT22;55463;52.324;5.122;2023-07-20T09:51:05;27.59;42.74
67275;DHT22;55463;52.324;5.122;2023-07-20T09:53:33;27.68;45.34
67275;DHT22;55463;52.324;5.122;2023-07-20T09:55:58;27.21;45.75
67275;DHT22;55463;52.324;5.122;2023-07-20T09:58:25;27.18;47.36
67275;DHT22;55463;52.324;5.122;2023-07-20T10:00:52;26.10;47.74
67275;DHT22;55463;52.324;5.122;2023-07-20T10:03:22;26.14;48.82
67275;DHT22;55463;52.324;5.122;2023-07-20T10:06:23;26.34;51.42
67275;DHT22;55463;52.324;5.122;2023-07-20T10:08:41;26.00;50.05
67275;DHT22;55463;52.324;5.122;2023-07-20T10:11:08;26.06;52.71
67275;DHT22;55463;52.324;5.122;2023-07-20T10:13:37;26.10;52.40
67275;DHT22;55463;52.324;5.122;2023-07-20T10:16:12;26.06;52.61
67275;DHT22;55463;52.324;5.122;2023-07-20T10:21:35;26.18;52.90
67275;DHT22;55463;52.324;5.122;2023-07-20T10:24:02;26.08;52.50
67275;DHT22;55463;52.324;5.122;2023-07-20T10:26:28;26.55;53.87
67275;DHT22;55463;52.324;5.122;2023-07-20T10:28:55;26.40;51.64
67275;DHT22;55463;52.324;5.122;2023-07-20T10:31:22;27.18;51.91
67275;DHT22;55463;52.324;5.122;2023-07-20T10:33:48;27.03;51.23
67275;DHT22;55463;52.324;5.122;2023-07-20T10:36:15;26.67;50.64
67275;DHT22;55463;52.324;5.122;2023-07-20T10:41:32;26.71;51.42
67275;DHT22;55463;52.324;5.122;2023-07-20T10:44:04;27.52;53.62
67275;DHT22;55463;52.324;5.122;2023-07-20T10:49:08;28.54;49.04
67275;DHT22;55463;52.324;5.122;2023-07-20T10:51:55;28.00;49.45
67275;DHT22;55463;52.324;5.122;2023-07-20T10:56:47;27.38;50.90
67275;DHT22;55463;52.324;5.122;2023-07-20T11:01:59;28.13;52.02
67275;DHT22;55463;52.324;5.122;2023-07-20T11:04:41;28.04;51.24
67275;DHT22;55463;52.324;5.122;2023-07-20T11:07:07;27.92;50.31
67275;DHT22;55463;52.324;5.122;2023-07-20T11:09:38;27.69;51.03
67275;DHT22;55463;52.324;5.122;2023-07-20T11:12:11;27.47;51.76
67275;DHT22;55463;52.324;5.122;2023-07-20T11:14:44;27.34;53.18
67275;DHT22;55463;52.324;5.122;2023-07-20T11:17:17;27.54;52.70
67275;DHT22;55463;52.324;5.122;2023-07-20T11:19:48;27.52;52.84
67275;DHT22;55463;52.324;5.122;2023-07-20T11:22:17;27.68;52.30
67275;DHT22;55463;52.324;5.122;2023-07-20T11:24:43;27.52;53.65
67275;DHT22;55463;52.324;5.122;2023-07-20T11:27:08;27.66;54.26
67275;DHT22;55463;52.324;5.122;2023-07-20T11:29:34;27.97;50.87
67275;DHT22;55463;52.324;5.122;2023-07-20T11:32:01;28.61;51.50
67275;DHT22;55463;52.324;5.122;2023-07-20T11:34:30;28.75;51.90
67275;DHT22;55463;52.324;5.122;2023-07-20T11:36:55;28.55;50.91
67275;DHT22;55463;52.324;5.122;2023-07-20T11:39:22;28.06;51.62
67275;DHT22;55463;52.324;5.122;2023-07-20T11:41:49;27.65;50.86
67275;DHT22;55463;52.324;5.122;2023-07-20T11:44:18;27.07;52.27
67275;DHT22;55463;52.324;5.122;2023-07-20T11:46:45;26.71;52.81
67275;DHT22;55463;52.324;5.122;2023-07-20T11:49:12;26.23;55.20
67275;DHT22;55463;52.324;5.122;2023-07-20T11:51:39;26.07;56.23
67275;DHT22;55463;52.324;5.122;2023-07-20T11:54:06;26.18;55.22
67275;DHT22;55463;52.324;5.122;2023-07-20T11:56:32;25.85;55.20
67275;DHT22;55463;52.324;5.122;2023-07-20T11:58:58;25.83;55.89
67275;DHT22;55463;52.324;5.122;2023-07-20T12:01:27;25.68;55.79
67275;DHT22;55463;52.324;5.122;2023-07-20T12:03:59;25.46;56.19
67275;DHT22;55463;52.324;5.122;2023-07-20T12:06:25;25.31;56.74
67275;DHT22;55463;52.324;5.122;2023-07-20T12:08:53;25.88;55.70
67275;DHT22;55463;52.324;5.122;2023-07-20T12:11:38;25.61;54.76
67275;DHT22;55463;52.324;5.122;2023-07-20T12:14:06;25.46;56.26
67275;DHT22;55463;52.324;5.122;2023-07-20T12:16:32;25.25;56.06
67275;DHT22;55463;52.324;5.122;2023-07-20T12:19:02;25.44;57.44
67275;DHT22;55463;52.324;5.122;2023-07-20T12:21:29;26.21;57.88
67275;DHT22;55463;52.324;5.122;2023-07-20T12:23:57;26.85;56.12
67275;DHT22;55463;52.324;5.122;2023-07-20T12:26:24;26.73;54.19
67275;DHT22;55463;52.324;5.122;2023-07-20T12:28:50;26.45;54.07
67275;DHT22;55463;52.324;5.122;2023-07-20T12:31:16;26.17;55.32
67275;DHT22;55463;52.324;5.122;2023-07-20T12:33:41;25.78;54.99
67275;DHT22;55463;52.324;5.122;2023-07-20T12:36:09;25.63;58.03
67275;DHT22;55463;52.324;5.122;2023-07-20T12:38:35;25.52;56.70
67275;DHT22;55463;52.324;5.122;2023-07-20T12:41:02;25.10;56.97
67275;DHT22;55463;52.324;5.122;2023-07-20T12:43:28;25.02;58.96
67275;DHT22;55463;52.324;5.122;2023-07-20T12:45:54;24.79;57.98
67275;DHT22;55463;52.324;5.122;2023-07-20T12:48:20;24.59;58.01
67275;DHT22;55463;52.324;5.122;2023-07-20T12:50:45;24.45;59.71
67275;DHT22;55463;52.324;5.122;2023-07-20T12:53:11;24.22;59.62
67275;DHT22;55463;52.324;5.122;2023-07-20T12:55:37;24.27;60.32
67275;DHT22;55463;52.324;5.122;2023-07-20T12:58:03;24.22;60.08
67275;DHT22;55463;52.324;5.122;2023-07-20T13:00:29;24.34;59.66
67275;DHT22;55463;52.324;5.122;2023-07-20T13:02:54;24.39;58.89
67275;DHT22;55463;52.324;5.122;2023-07-20T13:05:20;24.49;58.36
67275;DHT22;55463;52.324;5.122;2023-07-20T13:07:45;24.55;59.02
67275;DHT22;55463;52.324;5.122;2023-07-20T13:10:11;24.68;57.67
67275;DHT22;55463;52.324;5.122;2023-07-20T13:12:38;24.65;57.32
67275;DHT22;55463;52.324;5.122;2023-07-20T13:15:05;24.51;56.82
67275;DHT22;55463;52.324;5.122;2023-07-20T13:17:34;24.45;58.89
67275;DHT22;55463;52.324;5.122;2023-07-20T13:20:00;24.37;59.51
67275;DHT22;55463;52.324;5.122;2023-07-20T13:22:26;24.20;59.16
67275;DHT22;55463;52.324;5.122;2023-07-20T13:24:52;24.21;59.38
67275;DHT22;55463;52.324;5.122;2023-07-20T13:27:18;24.25;59.26
67275;DHT22;55463;52.324;5.122;2023-07-20T13:29:44;24.63;60.54
67275;DHT22;55463;52.324;5.122;2023-07-20T13:32:12;24.55;59.26
67275;DHT22;55463;52.324;5.122;2023-07-20T13:34:38;24.28;57.29
67275;DHT22;55463;52.324;5.122;2023-07-20T13:37:03;24.25;58.94
67275;DHT22;55463;52.324;5.122;2023-07-20T13:39:29;24.06;57.88
67275;DHT22;55463;52.324;5.122;2023-07-20T13:41:54;24.06;58.60
67275;DHT22;55463;52.324;5.122;2023-07-20T13:44:20;24.87;59.46
67275;DHT22;55463;52.324;5.122;2023-07-20T13:46:47;25.48;59.70
67275;DHT22;55463;52.324;5.122;2023-07-20T13:49:12;25.63;59.06
67275;DHT22;55463;52.324;5.122;2023-07-20T13:51:39;25.37;59.17
67275;DHT22;55463;52.324;5.122;2023-07-20T13:54:05;25.14;59.87
67275;DHT22;55463;52.324;5.122;2023-07-20T13:56:31;24.99;60.89
67275;DHT22;55463;52.324;5.122;2023-07-20T13:58:56;24.69;59.51
67275;DHT22;55463;52.324;5.122;2023-07-20T14:01:22;24.55;61.09
67275;DHT22;55463;52.324;5.122;2023-07-20T14:03:50;24.48;61.20
67275;DHT22;55463;52.324;5.122;2023-07-20T14:06:16;24.61;61.54
67275;DHT22;55463;52.324;5.122;2023-07-20T14:08:43;25.06;61.71
67275;DHT22;55463;52.324;5.122;2023-07-20T14:11:14;25.02;59.06
67275;DHT22;55463;52.324;5.122;2023-07-20T14:13:40;24.87;58.81
67275;DHT22;55463;52.324;5.122;2023-07-20T14:16:05;24.62;57.14
67275;DHT22;55463;52.324;5.122;2023-07-20T14:18:31;24.79;59.45
67275;DHT22;55463;52.324;5.122;2023-07-20T14:20:56;25.00;59.13
67275;DHT22;55463;52.324;5.122;2023-07-20T14:23:22;24.94;58.13
67275;DHT22;55463;52.324;5.122;2023-07-20T14:25:48;25.10;57.50
67275;DHT22;55463;52.324;5.122;2023-07-20T14:28:13;25.24;58.12
67275;DHT22;55463;52.324;5.122;2023-07-20T14:30:39;25.57;58.04
67275;DHT22;55463;52.324;5.122;2023-07-20T14:33:05;25.65;58.36
67275;DHT22;55463;52.324;5.122;2023-07-20T14:35:30;25.63;58.65
67275;DHT22;55463;52.324;5.122;2023-07-20T14:37:56;25.42;57.38
67275;DHT22;55463;52.324;5.122;2023-07-20T14:40:21;25.06;58.14
67275;DHT22;55463;52.324;5.122;2023-07-20T14:42:47;24.93;59.51
67275;DHT22;55463;52.324;5.122;2023-07-20T14:45:12;24.84;59.77
67275;DHT22;55463;52.324;5.122;2023-07-20T14:47:38;24.83;59.61
67275;DHT22;55463;52.324;5.122;2023-07-20T14:50:06;24.75;60.16
67275;DHT22;55463;52.324;5.122;2023-07-20T14:52:32;24.65;60.02
67275;DHT22;55463;52.324;5.122;2023-07-20T14:54:57;24.73;60.60
67275;DHT22;55463;52.324;5.122;2023-07-20T14:57:23;24.68;61.11
67275;DHT22;55463;52.324;5.122;2023-07-20T14:59:51;24.48;60.65
67275;DHT22;55463;52.324;5.122;2023-07-20T15:02:18;24.48;60.69
67275;DHT22;55463;52.324;5.122;2023-07-20T15:04:47;24.51;60.74
67275;DHT22;55463;52.324;5.122;2023-07-20T15:07:15;24.51;60.99
67275;DHT22;55463;52.324;5.122;2023-07-20T15:09:40;24.44;60.82
67275;DHT22;55463;52.324;5.122;2023-07-20T15:12:06;24.14;61.23
67275;DHT22;55463;52.324;5.122;2023-07-20T15:14:32;23.86;61.15
67275;DHT22;55463;52.324;5.122;2023-07-20T15:16:57;23.72;61.94
67275;DHT22;55463;52.324;5.122;2023-07-20T15:19:23;23.83;62.29
67275;DHT22;55463;52.324;5.122;2023-07-20T15:21:48;23.79;62.15
67275;DHT22;55463;52.324;5.122;2023-07-20T15:24:14;23.66;61.89
67275;DHT22;55463;52.324;5.122;2023-07-20T15:26:39;23.83;63.61
67275;DHT22;55463;52.324;5.122;2023-07-20T15:29:06;23.82;63.84
67275;DHT22;55463;52.324;5.122;2023-07-20T15:31:32;23.92;63.43
67275;DHT22;55463;52.324;5.122;2023-07-20T15:33:57;23.96;62.31
67275;DHT22;55463;52.324;5.122;2023-07-20T15:36:23;24.14;62.07
67275;DHT22;55463;52.324;5.122;2023-07-20T15:38:49;24.10;62.77
67275;DHT22;55463;52.324;5.122;2023-07-20T15:41:14;23.84;63.27
67275;DHT22;55463;52.324;5.122;2023-07-20T15:43:40;23.80;62.89